Time;durP1;ratioP1;P1;durP2;ratioP2;P2;SDS_P1;SDS_P2;PMS_P1;PMS_P2;Temp;Humidity;BMP_temperature;BMP_pressure;BME280_temperature;BME280_humidity;BME280_pressure;Samples;Min_cycle;Max_cycle;Signal;HPM_P1;HPM_P2
2022/03/24 00:00:05;;;;;;;58.10;31.27;;;9.00;73.00;;;;;;7344501;19;112241;-86
2022/03/24 00:02:32;;;;;;;61.28;30.85;;;9.00;73.20;;;;;;7338132;19;113422;-86
2022/03/24 00:05:00;;;;;;;64.80;32.92;;;8.90;73.10;;;;;;7338378;19;111286;-86
2022/03/24 00:07:27;;;;;;;62.17;31.92;;;8.90;73.40;;;;;;7339678;19;110199;-85
2022/03/24 00:09:54;;;;;;;65.30;32.75;;;8.90;73.70;;;;;;7339612;19;111377;-86
2022/03/24 00:12:22;;;;;;;62.80;30.38;;;8.80;73.80;;;;;;7335975;19;112516;-86
2022/03/24 00:14:49;;;;;;;64.85;31.67;;;8.80;73.60;;;;;;7338948;19;110254;-85
2022/03/24 00:17:16;;;;;;;52.38;29.13;;;8.80;73.90;;;;;;7338527;19;111504;-85
2022/03/24 00:19:44;;;;;;;60.95;31.10;;;8.80;73.60;;;;;;7335491;19;113318;-86
2022/03/24 00:22:11;;;;;;;57.83;30.35;;;8.70;73.40;;;;;;7341706;19;110464;-85
2022/03/24 00:24:39;;;;;;;59.35;31.70;;;8.70;73.70;;;;;;7336176;19;112151;-86
2022/03/24 00:27:06;;;;;;;56.15;29.58;;;8.70;73.70;;;;;;7339642;19;111602;-86
2022/03/24 00:29:34;;;;;;;63.53;30.52;;;8.70;74.10;;;;;;7338037;19;111467;-86
2022/03/24 00:32:01;;;;;;;61.70;31.35;;;8.60;74.00;;;;;;7336198;19;112115;-86
2022/03/24 00:34:28;;;;;;;;;;;8.60;73.70;;;;;;7336722;19;110485;-85
2022/03/24 00:36:55;;;;;;;59.30;29.33;;;8.60;74.00;;;;;;7342184;19;112847;-84
2022/03/24 00:39:22;;;;;;;53.85;28.02;;;8.50;74.30;;;;;;7336032;19;111835;-86
2022/03/24 00:41:49;;;;;;;50.67;27.48;;;8.50;74.90;;;;;;7337731;19;110315;-86
2022/03/24 00:44:16;;;;;;;;;;;8.40;74.90;;;;;;7342304;19;111351;-85
2022/03/24 00:46:43;;;;;;;56.13;27.47;;;8.40;75.90;;;;;;7341471;19;110131;-86
2022/03/24 00:49:10;;;;;;;;;;;8.30;75.60;;;;;;7337106;19;110293;-85
2022/03/24 00:51:38;;;;;;;48.67;26.83;;;8.30;75.80;;;;;;7342909;19;108630;-86
2022/03/24 00:54:07;;;;;;;51.13;26.17;;;8.30;75.90;;;;;;7336875;19;110755;-86
2022/03/24 00:56:34;;;;;;;51.00;27.42;;;8.30;75.80;;;;;;7337867;19;111484;-86
2022/03/24 00:59:01;;;;;;;45.30;26.23;;;8.30;75.90;;;;;;7333150;19;112259;-85
2022/03/24 01:01:28;;;;;;;46.55;25.77;;;8.20;76.00;;;;;;7334938;19;111235;-85
2022/03/24 01:03:56;;;;;;;52.85;26.63;;;8.20;76.50;;;;;;7335668;19;112558;-86
2022/03/24 01:06:26;;;;;;;49.72;25.48;;;8.20;77.40;;;;;;7342632;19;111828;-85
2022/03/24 01:08:53;;;;;;;50.35;25.67;;;8.10;77.50;;;;;;7335995;19;111424;-86
2022/03/24 01:11:20;;;;;;;49.37;26.77;;;8.10;77.00;;;;;;7335542;19;110739;-86
2022/03/24 01:13:47;;;;;;;47.45;26.00;;;8.00;77.10;;;;;;7333930;19;110645;-86
2022/03/24 01:16:21;;;;;;;49.10;26.42;;;8.10;77.30;;;;;;7337820;19;111412;-86
2022/03/24 01:18:48;;;;;;;47.80;27.13;;;8.00;77.30;;;;;;7337287;19;111884;-86
2022/03/24 01:21:16;;;;;;;52.10;26.58;;;7.90;77.80;;;;;;7334105;19;112091;-86
2022/03/24 01:23:47;;;;;;;54.00;27.97;;;7.90;77.80;;;;;;7333675;19;110954;-86
2022/03/24 01:26:16;;;;;;;61.08;26.60;;;7.80;78.00;;;;;;7336939;19;111886;-86
2022/03/24 01:28:43;;;;;;;54.95;28.58;;;7.80;78.30;;;;;;7339473;19;110466;-86
2022/03/24 01:31:10;;;;;;;56.47;29.73;;;7.80;78.20;;;;;;7335793;19;111738;-85
2022/03/24 01:33:39;;;;;;;57.88;29.52;;;7.70;77.60;;;;;;7336854;19;113604;-86
2022/03/24 01:36:08;;;;;;;60.80;29.35;;;7.70;78.10;;;;;;7335324;19;111615;-86
2022/03/24 01:38:37;;;;;;;60.83;31.33;;;7.70;78.60;;;;;;7336108;19;111858;-86
2022/03/24 01:41:07;;;;;;;58.03;30.67;;;7.60;78.40;;;;;;7334109;19;110316;-85
2022/03/24 01:43:35;;;;;;;65.03;29.67;;;7.60;78.00;;;;;;7334536;19;112592;-84
2022/03/24 01:46:04;;;;;;;57.92;29.45;;;7.60;78.30;;;;;;7334273;19;112252;-86
2022/03/24 01:48:31;;;;;;;60.28;29.33;;;7.50;78.60;;;;;;7341581;19;111892;-86
2022/03/24 01:50:58;;;;;;;59.60;28.55;;;7.50;78.70;;;;;;7334617;19;112095;-86
2022/03/24 01:53:25;;;;;;;67.75;29.48;;;7.50;78.50;;;;;;7336217;19;110338;-85
2022/03/24 01:55:54;;;;;;;;;;;7.50;78.60;;;;;;7333545;19;111805;-86
2022/03/24 01:58:23;;;;;;;58.73;28.73;;;7.40;78.70;;;;;;7339936;19;109681;-86
2022/03/24 02:00:51;;;;;;;53.33;26.70;;;7.40;79.70;;;;;;7336309;19;110433;-86
2022/03/24 02:03:21;;;;;;;50.67;26.27;;;7.30;80.60;;;;;;7334633;19;111372;-86
2022/03/24 02:05:48;;;;;;;53.65;25.83;;;7.20;80.50;;;;;;7336441;19;112202;-86
2022/03/24 02:08:16;;;;;;;43.67;25.10;;;7.20;80.40;;;;;;7334642;19;110632;-86
2022/03/24 02:10:43;;;;;;;54.87;26.13;;;7.20;80.20;;;;;;7341541;19;114223;-86
2022/03/24 02:13:10;;;;;;;51.73;27.20;;;7.20;80.30;;;;;;7339704;19;110789;-86
2022/03/24 02:15:37;;;;;;;52.47;28.50;;;7.20;80.20;;;;;;7343828;19;111174;-86
2022/03/24 02:18:12;;;;;;;64.70;31.50;;;7.20;80.00;;;;;;7340489;19;111918;-86
2022/03/24 02:20:41;;;;;;;67.63;32.63;;;7.20;80.80;;;;;;7342708;19;110349;-85
2022/03/24 02:23:08;;;;;;;66.32;32.08;;;7.20;80.90;;;;;;7342256;19;112556;-85
2022/03/24 02:25:37;;;;;;;66.73;32.30;;;7.20;81.30;;;;;;7341953;19;112675;-85
2022/03/24 02:28:04;;;;;;;61.67;32.67;;;7.10;81.20;;;;;;7341117;19;111272;-86
2022/03/24 02:30:31;;;;;;;59.73;30.70;;;7.10;80.80;;;;;;7340603;19;111452;-86
2022/03/24 02:32:58;;;;;;;60.87;31.27;;;7.10;80.70;;;;;;7347174;19;112028;-85
2022/03/24 02:35:26;;;;;;;60.73;31.83;;;7.10;80.80;;;;;;7340854;19;111676;-86
2022/03/24 02:37:53;;;;;;;60.23;30.87;;;7.00;80.80;;;;;;7340439;19;113296;-86
2022/03/24 02:40:20;;;;;;;67.27;32.10;;;7.00;80.70;;;;;;7343395;19;111083;-85
2022/03/24 02:42:47;;;;;;;62.37;32.77;;;6.90;81.80;;;;;;7341253;19;113142;-86
2022/03/24 02:45:15;;;;;;;68.70;33.57;;;6.90;81.10;;;;;;7340046;19;112021;-86
2022/03/24 02:47:44;;;;;;;62.37;31.80;;;6.90;81.00;;;;;;7341326;19;110425;-86
2022/03/24 02:50:11;;;;;;;56.53;30.23;;;6.90;81.30;;;;;;7339901;19;111387;-85
2022/03/24 02:52:38;;;;;;;63.97;31.17;;;6.90;81.40;;;;;;7339035;19;111042;-85
2022/03/24 02:55:07;;;;;;;57.77;29.67;;;6.80;82.60;;;;;;7343627;19;110746;-86
2022/03/24 02:57:35;;;;;;;55.60;27.73;;;6.80;83.20;;;;;;7338971;19;111755;-86
2022/03/24 03:00:04;;;;;;;54.40;27.40;;;6.70;84.00;;;;;;7342135;19;110839;-86
2022/03/24 03:02:31;;;;;;;48.57;27.23;;;6.60;84.70;;;;;;7339555;19;111445;-86
2022/03/24 03:04:59;;;;;;;48.43;25.90;;;6.50;85.10;;;;;;7339973;19;112083;-86
2022/03/24 03:07:28;;;;;;;50.13;26.53;;;6.40;85.20;;;;;;7340350;19;112296;-86
2022/03/24 03:09:55;;;;;;;51.93;26.77;;;6.40;84.30;;;;;;7338660;19;112167;-86
2022/03/24 03:12:22;;;;;;;50.23;25.83;;;6.40;84.00;;;;;;7340442;19;112630;-86
2022/03/24 03:14:49;;;;;;;62.33;27.73;;;6.50;83.70;;;;;;7340442;19;110278;-86
2022/03/24 03:17:17;;;;;;;53.90;27.70;;;6.50;83.50;;;;;;7346542;19;112639;-86
2022/03/24 03:19:45;;;;;;;54.57;28.07;;;6.40;83.70;;;;;;7339095;19;110534;-85
2022/03/24 03:22:14;;;;;;;54.90;27.63;;;6.50;83.40;;;;;;7340318;19;111693;-86
2022/03/24 03:24:42;;;;;;;56.90;28.93;;;6.40;83.80;;;;;;7336569;19;112196;-86
2022/03/24 03:27:09;;;;;;;56.83;28.80;;;6.40;83.70;;;;;;7339553;19;111925;-85
2022/03/24 03:29:36;;;;;;;56.07;28.10;;;6.40;83.90;;;;;;7338591;19;111290;-86
2022/03/24 03:32:04;;;;;;;58.37;29.03;;;6.40;83.90;;;;;;7338563;19;111897;-86
2022/03/24 03:34:31;;;;;;;54.23;27.20;;;6.40;84.20;;;;;;7341142;19;111383;-85
2022/03/24 03:36:59;;;;;;;53.30;27.07;;;6.30;84.10;;;;;;7339419;19;111690;-86
2022/03/24 03:39:27;;;;;;;58.10;29.20;;;6.30;84.60;;;;;;7346674;19;111202;-87
2022/03/24 03:41:55;;;;;;;59.00;28.50;;;6.30;84.20;;;;;;7340663;19;111482;-87
2022/03/24 03:44:23;;;;;;;52.13;28.23;;;6.30;84.20;;;;;;7336986;19;111862;-87
2022/03/24 03:46:51;;;;;;;67.97;28.40;;;6.20;84.10;;;;;;7338226;19;110763;-88
2022/03/24 03:49:21;;;;;;;58.87;28.57;;;6.20;84.30;;;;;;7340994;19;111459;-86
2022/03/24 03:52:05;;;;;;;61.70;30.87;;;6.20;84.50;;;;;;7337950;19;112064;-87
2022/03/24 03:54:32;;;;;;;60.43;30.53;;;6.10;86.80;;;;;;7340769;19;110499;-86
2022/03/24 03:56:59;;;;;;;63.40;31.03;;;6.00;86.70;;;;;;7340050;19;111448;-86
2022/03/24 03:59:26;;;;;;;57.73;30.50;;;6.00;85.90;;;;;;7345072;19;111816;-87
2022/03/24 04:01:55;;;;;;;58.03;30.20;;;5.80;88.70;;;;;;7340521;19;110945;-88
2022/03/24 04:04:22;;;;;;;60.60;32.33;;;5.80;87.50;;;;;;7336443;19;112101;-84
2022/03/24 04:06:49;;;;;;;64.00;32.40;;;5.80;88.00;;;;;;7336007;19;110457;-84
2022/03/24 04:09:16;;;;;;;67.20;32.73;;;5.80;88.90;;;;;;7338339;19;111587;-84
2022/03/24 04:11:43;;;;;;;64.33;32.27;;;5.70;89.20;;;;;;7339528;19;111786;-84
2022/03/24 04:14:10;;;;;;;64.87;31.90;;;5.60;89.20;;;;;;7338706;19;110627;-84
2022/03/24 04:16:37;;;;;;;71.00;33.07;;;5.60;88.90;;;;;;7338353;19;111823;-83
2022/03/24 04:19:05;;;;;;;69.87;32.80;;;5.60;89.00;;;;;;7340424;19;112055;-84
2022/03/24 04:21:32;;;;;;;65.70;32.07;;;5.60;89.10;;;;;;7343462;19;110508;-84
2022/03/24 04:23:59;;;;;;;71.57;34.23;;;5.50;89.00;;;;;;7338579;19;111934;-84
2022/03/24 04:26:26;;;;;;;72.97;34.80;;;5.50;90.20;;;;;;7338836;19;111498;-84
2022/03/24 04:28:53;;;;;;;63.93;33.33;;;5.40;90.40;;;;;;7338938;19;111708;-84
2022/03/24 04:31:22;;;;;;;64.87;33.73;;;5.40;90.30;;;;;;7338773;19;112180;-84
2022/03/24 04:33:50;;;;;;;67.80;34.10;;;5.40;90.60;;;;;;7339362;19;110621;-83
2022/03/24 04:36:17;;;;;;;72.27;34.90;;;5.40;90.30;;;;;;7334475;19;111331;-84
2022/03/24 04:38:44;;;;;;;66.53;32.23;;;5.40;90.50;;;;;;7336775;19;112022;-84
2022/03/24 04:41:11;;;;;;;72.90;33.47;;;5.40;90.30;;;;;;7337735;19;113702;-84
2022/03/24 04:43:38;;;;;;;69.57;32.87;;;5.30;90.90;;;;;;7342071;19;111887;-84
2022/03/24 04:46:05;;;;;;;66.47;32.83;;;5.30;91.40;;;;;;7337402;19;111448;-84
2022/03/24 04:48:36;;;;;;;69.53;32.90;;;5.20;91.30;;;;;;7337499;19;111487;-83
2022/03/24 04:51:07;;;;;;;63.63;32.93;;;5.20;91.20;;;;;;7336794;19;111771;-83
2022/03/24 04:53:35;;;;;;;70.43;32.70;;;5.20;91.20;;;;;;7338388;19;110469;-84
2022/03/24 04:56:02;;;;;;;64.40;33.67;;;5.10;91.20;;;;;;7336152;19;111388;-83
2022/03/24 04:58:30;;;;;;;72.57;33.23;;;5.20;91.30;;;;;;7337347;19;112188;-84
2022/03/24 05:00:58;;;;;;;77.70;35.07;;;5.10;91.40;;;;;;7338462;19;110217;-83
2022/03/24 05:03:26;;;;;;;70.50;32.10;;;5.10;91.70;;;;;;7338591;19;110280;-84
2022/03/24 05:05:54;;;;;;;73.83;34.40;;;5.00;91.60;;;;;;7344063;19;111508;-84
2022/03/24 05:08:21;;;;;;;75.67;36.23;;;5.00;91.80;;;;;;7334987;19;114469;-83
2022/03/24 05:10:48;;;;;;;68.50;33.80;;;5.00;91.90;;;;;;7338509;19;112054;-83
2022/03/24 05:13:15;;;;;;;71.67;32.13;;;5.00;92.10;;;;;;7336410;19;110950;-83
2022/03/24 05:15:43;;;;;;;66.37;34.50;;;4.90;91.80;;;;;;7337728;19;111417;-83
2022/03/24 05:18:10;;;;;;;67.80;32.37;;;4.90;92.00;;;;;;7336697;19;112099;-84
2022/03/24 05:20:38;;;;;;;62.77;31.27;;;4.90;92.30;;;;;;7337748;19;110344;-83
2022/03/24 05:23:05;;;;;;;61.27;31.43;;;5.00;92.20;;;;;;7336672;19;111996;-84
2022/03/24 05:25:32;;;;;;;64.13;31.40;;;5.00;92.20;;;;;;7335160;19;112197;-83
2022/03/24 05:27:59;;;;;;;66.87;30.53;;;5.10;92.30;;;;;;7342642;19;110890;-83
2022/03/24 05:30:27;;;;;;;67.30;34.37;;;5.10;91.90;;;;;;7338026;19;112131;-83
2022/03/24 05:32:54;;;;;;;70.67;31.57;;;5.10;92.40;;;;;;7338127;19;110245;-83
2022/03/24 05:35:22;;;;;;;74.23;33.43;;;5.00;92.40;;;;;;7336945;19;111963;-83
2022/03/24 05:37:49;;;;;;;81.70;34.57;;;5.00;92.30;;;;;;7337231;19;111738;-83
2022/03/24 05:40:17;;;;;;;69.80;33.07;;;4.90;92.40;;;;;;7337323;19;110749;-83
2022/03/24 05:42:44;;;;;;;153.30;36.07;;;4.80;93.10;;;;;;7335805;19;111293;-83
2022/03/24 05:45:11;;;;;;;74.87;31.53;;;4.70;93.20;;;;;;7333045;19;111528;-83
2022/03/24 05:47:39;;;;;;;68.00;33.30;;;4.70;92.90;;;;;;7332793;19;113302;-83
2022/03/24 05:50:06;;;;;;;62.90;30.53;;;4.70;92.90;;;;;;7341915;19;110285;-84
2022/03/24 05:52:34;;;;;;;63.40;31.57;;;4.70;92.80;;;;;;7336629;19;110891;-83
2022/03/24 05:55:01;;;;;;;67.67;31.80;;;4.70;93.00;;;;;;7336053;19;111346;-83
2022/03/24 05:57:28;;;;;;;67.93;32.07;;;4.70;92.60;;;;;;7333751;19;111721;-83
2022/03/24 05:59:55;;;;;;;70.43;32.70;;;4.70;93.00;;;;;;7334280;19;110305;-83
2022/03/24 06:02:23;;;;;;;65.63;31.47;;;4.70;92.70;;;;;;7335863;19;113678;-83
2022/03/24 06:04:51;;;;;;;69.47;32.40;;;4.70;93.20;;;;;;7332295;19;111944;-83
2022/03/24 06:07:18;;;;;;;65.03;32.87;;;4.70;93.20;;;;;;7335699;19;111694;-83
2022/03/24 06:09:48;;;;;;;65.03;32.67;;;4.70;93.20;;;;;;7342436;19;111591;-83
2022/03/24 06:12:15;;;;;;;69.60;34.47;;;4.70;93.20;;;;;;7333809;19;110204;-86
2022/03/24 06:14:43;;;;;;;69.87;33.00;;;4.80;93.20;;;;;;7335308;19;111003;-85
2022/03/24 06:17:10;;;;;;;71.07;33.37;;;4.80;92.90;;;;;;7332735;19;114196;-85
2022/03/24 06:19:38;;;;;;;69.40;31.93;;;4.90;93.10;;;;;;7333818;19;110968;-84
2022/03/24 06:22:07;;;;;;;70.17;32.43;;;4.90;93.40;;;;;;7333435;19;111702;-85
2022/03/24 06:24:34;;;;;;;75.20;34.53;;;5.00;93.20;;;;;;7331099;19;112777;-85
2022/03/24 06:27:02;;;;;;;62.00;31.67;;;5.10;93.40;;;;;;7334813;19;110723;-85
2022/03/24 06:29:29;;;;;;;67.17;32.57;;;5.10;93.40;;;;;;7335932;19;111539;-83
2022/03/24 06:31:56;;;;;;;73.83;34.40;;;5.20;93.40;;;;;;7340015;19;112063;-84
2022/03/24 06:34:25;;;;;;;73.80;33.83;;;5.20;93.70;;;;;;7335627;19;110915;-85
2022/03/24 06:36:53;;;;;;;72.80;34.93;;;5.30;93.60;;;;;;7335555;19;114297;-84
2022/03/24 06:39:21;;;;;;;69.40;33.77;;;5.40;93.80;;;;;;7335943;19;111280;-84
2022/03/24 06:41:49;;;;;;;69.57;32.57;;;5.50;93.50;;;;;;7329449;19;112188;-84
2022/03/24 06:44:18;;;;;;;73.80;33.90;;;5.60;93.90;;;;;;7331927;19;111514;-87
2022/03/24 06:46:45;;;;;;;71.80;33.17;;;5.60;93.30;;;;;;7334472;19;110806;-85
2022/03/24 06:49:12;;;;;;;73.03;33.93;;;5.70;93.60;;;;;;7335581;19;110456;-85
2022/03/24 06:51:39;;;;;;;74.73;35.20;;;5.80;93.40;;;;;;7332147;19;112260;-86
2022/03/24 06:54:07;;;;;;;79.67;38.07;;;5.90;93.10;;;;;;7340919;19;110661;-85
2022/03/24 06:56:34;;;;;;;74.23;36.70;;;6.00;93.70;;;;;;7332034;19;112318;-85
2022/03/24 06:59:03;;;;;;;66.13;34.73;;;6.10;93.50;;;;;;7334932;19;110174;-87
2022/03/24 07:01:30;;;;;;;78.17;36.37;;;6.30;93.40;;;;;;7341899;19;111446;-85
2022/03/24 07:03:57;;;;;;;69.07;36.13;;;6.40;93.50;;;;;;7342516;19;113493;-85
2022/03/24 07:06:25;;;;;;;87.20;37.73;;;6.50;93.60;;;;;;7336177;19;110310;-86
2022/03/24 07:08:52;;;;;;;;;;;6.50;93.50;;;;;;7343667;19;111565;-85
2022/03/24 07:11:19;;;;;;;74.25;35.80;;;6.70;94.20;;;;;;7347060;19;109286;-86
2022/03/24 07:13:46;;;;;;;75.03;36.70;;;6.70;93.90;;;;;;7341824;19;110212;-88
2022/03/24 07:16:14;;;;;;;68.63;38.03;;;6.90;94.40;;;;;;7344751;19;110707;-87
2022/03/24 07:18:41;;;;;;;75.13;36.73;;;7.00;94.70;;;;;;7341507;19;110441;-86
2022/03/24 07:21:08;;;;;;;;;;;7.20;94.40;;;;;;7342066;19;111396;-86
2022/03/24 07:23:35;;;;;;;76.27;39.37;;;7.30;95.10;;;;;;7347389;19;109585;-86
2022/03/24 07:26:03;;;;;;;81.30;38.60;;;7.30;94.30;;;;;;7339440;19;111676;-87
2022/03/24 07:28:30;;;;;;;78.83;39.83;;;7.40;94.00;;;;;;7340430;19;111477;-87
2022/03/24 07:30:57;;;;;;;75.33;40.67;;;7.50;94.40;;;;;;7341762;19;111261;-86
2022/03/24 07:33:24;;;;;;;91.00;43.37;;;7.60;94.30;;;;;;7342248;19;110406;-86
2022/03/24 07:35:51;;;;;;;95.90;43.40;;;7.70;95.40;;;;;;7339560;19;115380;-87
2022/03/24 07:38:18;;;;;;;91.40;43.43;;;7.80;96.00;;;;;;7347576;19;112321;-86
2022/03/24 07:40:53;;;;;;;86.50;42.03;;;7.80;96.00;;;;;;7340827;19;111443;-85
2022/03/24 07:43:20;;;;;;;103.60;44.13;;;8.00;96.20;;;;;;7341846;19;111916;-87
2022/03/24 07:45:48;;;;;;;90.10;44.70;;;8.20;96.10;;;;;;7340665;19;111196;-86
2022/03/24 07:48:17;;;;;;;93.60;41.92;;;8.30;95.80;;;;;;7342183;19;113754;-86
2022/03/24 07:50:46;;;;;;;96.90;43.80;;;8.50;95.60;;;;;;7341750;19;111617;-85
2022/03/24 07:53:14;;;;;;;84.70;42.13;;;8.70;95.50;;;;;;7340659;19;114246;-86
2022/03/24 07:55:42;;;;;;;86.40;42.28;;;8.80;95.30;;;;;;7340138;19;110864;-84
2022/03/24 07:58:15;;;;;;;83.72;43.17;;;9.10;95.10;;;;;;7344143;19;111459;-86
2022/03/24 08:00:45;;;;;;;80.30;43.05;;;9.20;95.20;;;;;;7340256;19;111645;-86
2022/03/24 08:03:18;;;;;;;84.70;46.05;;;9.40;95.30;;;;;;7339374;19;111929;-86
2022/03/24 08:05:47;;;;;;;95.75;48.20;;;9.60;95.10;;;;;;7338719;19;110222;-87
2022/03/24 08:08:14;;;;;;;93.03;48.38;;;9.70;95.10;;;;;;7338910;19;110323;-85
2022/03/24 08:10:44;;;;;;;85.88;47.45;;;9.80;95.10;;;;;;7336929;19;111119;-85
2022/03/24 08:13:15;;;;;;;92.40;49.72;;;10.00;95.10;;;;;;7340908;19;112198;-85
2022/03/24 08:15:43;;;;;;;95.82;52.08;;;10.20;95.00;;;;;;7339541;19;111479;-86
2022/03/24 08:18:11;;;;;;;103.75;54.30;;;10.30;94.70;;;;;;7340715;19;112201;-86
2022/03/24 08:20:39;;;;;;;115.50;54.10;;;10.40;94.60;;;;;;7343008;19;110550;-85
2022/03/24 08:23:11;;;;;;;109.03;54.45;;;10.50;94.20;;;;;;7340273;19;112768;-86
2022/03/24 08:25:40;;;;;;;112.00;52.67;;;10.60;94.10;;;;;;7339674;19;112951;-86
2022/03/24 08:28:09;;;;;;;105.07;51.10;;;10.70;94.30;;;;;;7337861;19;111947;-86
2022/03/24 08:30:37;;;;;;;97.13;47.63;;;10.90;94.20;;;;;;7338699;19;110743;-86
2022/03/24 08:33:04;;;;;;;93.18;50.60;;;11.00;93.70;;;;;;7337787;19;110492;-85
2022/03/24 08:35:31;;;;;;;108.13;48.75;;;11.10;93.50;;;;;;7340424;19;110424;-86
2022/03/24 08:37:59;;;;;;;104.57;47.78;;;11.20;93.50;;;;;;7338849;19;111648;-86
2022/03/24 08:40:27;;;;;;;105.72;46.72;;;11.30;93.90;;;;;;7339518;19;111291;-86
2022/03/24 08:42:55;;;;;;;98.63;47.65;;;11.50;93.70;;;;;;7344525;19;111425;-85
2022/03/24 08:45:23;;;;;;;96.72;46.30;;;11.70;93.30;;;;;;7338452;19;110488;-86
2022/03/24 08:47:53;;;;;;;101.07;45.42;;;11.90;93.30;;;;;;7340139;19;110596;-85
2022/03/24 08:50:21;;;;;;;89.22;46.58;;;12.00;93.10;;;;;;7336994;19;112207;-86
2022/03/24 08:52:49;;;;;;;101.70;46.72;;;12.30;92.70;;;;;;7336282;19;110219;-86
2022/03/24 08:55:16;;;;;;;101.35;47.00;;;12.40;92.40;;;;;;7340199;19;111449;-86
2022/03/24 08:57:44;;;;;;;89.55;44.50;;;12.60;92.20;;;;;;7335894;19;115233;-86
2022/03/24 09:00:13;;;;;;;96.05;47.35;;;12.70;92.10;;;;;;7334634;19;109928;-86
2022/03/24 09:02:48;;;;;;;89.72;45.92;;;13.00;91.90;;;;;;7339922;19;111720;-85
2022/03/24 09:05:16;;;;;;;85.30;44.75;;;13.00;91.80;;;;;;7342546;19;115264;-86
2022/03/24 09:07:44;;;;;;;94.55;44.70;;;13.20;91.80;;;;;;7338549;19;111988;-86
2022/03/24 09:10:15;;;;;;;85.10;45.13;;;13.30;91.10;;;;;;7337138;19;111758;-86
2022/03/24 09:12:44;;;;;;;90.40;44.17;;;13.40;91.10;;;;;;7336728;19;110169;-86
2022/03/24 09:15:18;;;;;;;95.18;44.72;;;13.50;90.50;;;;;;7336924;19;111739;-85
2022/03/24 09:17:47;;;;;;;82.38;43.55;;;13.60;90.50;;;;;;7336895;19;111475;-86
2022/03/24 09:20:18;;;;;;;87.10;44.50;;;13.70;90.60;;;;;;7338753;19;110142;-85
2022/03/24 09:22:47;;;;;;;86.00;43.58;;;13.80;90.80;;;;;;7338794;19;111093;-86
2022/03/24 09:25:16;;;;;;;84.05;45.08;;;14.00;90.60;;;;;;7337762;19;112080;-86
2022/03/24 09:27:44;;;;;;;93.47;45.38;;;14.20;90.80;;;;;;7342711;19;110433;-85
2022/03/24 09:30:14;;;;;;;80.10;44.05;;;14.30;90.20;;;;;;7338399;19;112138;-85
2022/03/24 09:32:42;;;;;;;86.53;45.08;;;14.50;89.90;;;;;;7338187;19;110338;-85
2022/03/24 09:35:09;;;;;;;91.75;43.97;;;14.60;89.40;;;;;;7336544;19;111248;-86
2022/03/24 09:37:36;;;;;;;83.32;42.13;;;14.60;89.40;;;;;;7334975;19;111801;-86
2022/03/24 09:40:05;;;;;;;71.57;39.97;;;14.80;88.20;;;;;;7338429;19;110293;-86
2022/03/24 09:42:33;;;;;;;82.10;41.22;;;14.90;83.00;;;;;;7338246;19;111463;-87
2022/03/24 09:45:04;;;;;;;78.65;41.58;;;14.90;82.20;;;;;;7339217;19;111839;-86
2022/03/24 09:47:32;;;;;;;66.50;39.15;;;15.00;79.30;;;;;;7335570;19;110215;-86
2022/03/24 09:49:59;;;;;;;71.35;40.15;;;15.10;81.50;;;;;;7342900;19;111924;-86
2022/03/24 09:52:26;;;;;;;75.45;39.50;;;15.20;76.80;;;;;;7336672;19;111073;-85
2022/03/24 09:54:54;;;;;;;82.55;42.03;;;15.30;76.70;;;;;;7338207;19;111423;-86
2022/03/24 09:57:22;;;;;;;72.70;40.15;;;15.30;77.30;;;;;;7335421;19;111493;-85
2022/03/24 09:59:49;;;;;;;76.53;40.55;;;15.40;78.50;;;;;;7335976;19;111113;-85
2022/03/24 10:02:17;;;;;;;78.18;41.53;;;15.60;77.60;;;;;;7335683;19;111165;-86
2022/03/24 10:04:45;;;;;;;75.47;39.97;;;15.70;78.20;;;;;;7337223;19;110855;-87
2022/03/24 10:07:17;;;;;;;77.28;37.72;;;15.80;75.30;;;;;;7334920;19;109993;-86
2022/03/24 10:09:47;;;;;;;69.90;38.28;;;15.90;75.10;;;;;;7341994;19;110641;-86
2022/03/24 10:12:23;;;;;;;70.80;38.38;;;16.00;73.60;;;;;;7335262;19;112876;-86
2022/03/24 10:15:05;;;;;;;67.65;36.17;;;16.10;72.00;;;;;;7337860;19;110929;-86
2022/03/24 10:17:37;;;;;;;61.20;36.15;;;16.10;68.60;;;;;;7335230;19;115741;-85
2022/03/24 10:20:05;;;;;;;71.20;36.90;;;16.20;71.80;;;;;;7335619;19;110485;-86
2022/03/24 10:22:33;;;;;;;67.43;35.97;;;16.40;72.70;;;;;;7335520;19;111867;-86
2022/03/24 10:25:01;;;;;;;64.82;34.67;;;16.60;71.60;;;;;;7335241;19;110698;-86
2022/03/24 10:27:30;;;;;;;65.45;36.53;;;16.70;71.10;;;;;;7334670;19;110274;-86
2022/03/24 10:29:59;;;;;;;59.58;33.70;;;16.80;68.20;;;;;;7335365;19;111036;-86
2022/03/24 10:32:29;;;;;;;68.03;36.47;;;16.80;67.80;;;;;;7339733;19;111783;-86
2022/03/24 10:35:07;;;;;;;75.50;36.78;;;16.90;70.10;;;;;;7342087;19;111724;-86
2022/03/24 10:37:34;;;;;;;53.78;31.38;;;17.10;68.30;;;;;;7342691;19;110742;-85
2022/03/24 10:40:06;;;;;;;47.70;29.80;;;17.20;66.00;;;;;;7343797;19;111009;-86
2022/03/24 10:42:36;;;;;;;63.00;32.05;;;17.30;65.10;;;;;;7343047;19;114809;-86
2022/03/24 10:45:18;;;;;;;57.38;30.67;;;17.30;64.80;;;;;;7343105;19;112751;-86
2022/03/24 10:47:48;;;;;;;53.47;30.08;;;17.40;62.60;;;;;;7340529;19;110829;-86
2022/03/24 10:50:30;;;;;;;52.53;30.33;;;17.50;62.90;;;;;;7340888;19;111398;-86
2022/03/24 10:53:00;;;;;;;50.25;28.85;;;17.60;60.60;;;;;;7343723;19;110905;-87
2022/03/24 10:55:59;;;;;;;45.55;26.05;;;17.60;60.50;;;;;;7349113;19;114054;-85
2022/03/24 10:58:33;;;;;;;47.33;25.63;;;17.70;61.40;;;;;;7342929;19;114466;-85
2022/03/24 11:01:03;;;;;;;41.95;26.23;;;17.80;59.60;;;;;;7342625;19;113227;-86
2022/03/24 11:03:32;;;;;;;52.45;26.15;;;18.00;60.90;;;;;;7342086;19;111845;-85
2022/03/24 11:06:15;;;;;;;44.92;24.05;;;18.10;59.70;;;;;;7342754;19;112352;-86
2022/03/24 11:08:44;;;;;;;45.45;26.10;;;18.20;56.40;;;;;;7342957;19;112370;-85
2022/03/24 11:11:15;;;;;;;45.75;26.00;;;18.20;57.40;;;;;;7342445;19;112248;-86
2022/03/24 11:13:45;;;;;;;42.40;25.95;;;18.30;58.60;;;;;;7339249;19;112105;-86
2022/03/24 11:16:14;;;;;;;47.45;25.10;;;18.40;57.50;;;;;;7341564;19;110171;-86
2022/03/24 11:18:42;;;;;;;47.92;24.45;;;18.40;56.50;;;;;;7347598;19;110406;-86
2022/03/24 11:21:13;;;;;;;42.75;25.23;;;18.40;57.60;;;;;;7341250;19;110248;-86
2022/03/24 11:23:41;;;;;;;37.53;22.35;;;18.50;57.40;;;;;;7342170;19;115010;-86
2022/03/24 11:26:10;;;;;;;38.10;22.13;;;18.60;56.80;;;;;;7341444;19;112181;-86
2022/03/24 11:28:39;;;;;;;32.13;18.27;;;18.70;56.90;;;;;;7340641;19;113236;-86
2022/03/24 11:31:11;;;;;;;35.60;20.50;;;18.70;55.10;;;;;;7340201;19;111305;-86
2022/03/24 11:33:48;;;;;;;37.13;19.20;;;18.70;54.50;;;;;;7341006;19;111237;-86
2022/03/24 11:36:19;;;;;;;39.72;19.73;;;18.90;53.60;;;;;;7340751;19;110009;-87
2022/03/24 11:38:48;;;;;;;26.55;16.33;;;18.90;52.60;;;;;;7342240;19;111497;-86
2022/03/24 11:41:23;;;;;;;37.28;17.17;;;18.80;54.20;;;;;;7346274;19;112275;-87
2022/03/24 11:44:24;;;;;;;37.42;18.38;;;18.90;54.60;;;;;;7341190;19;111665;-86
2022/03/24 11:46:56;;;;;;;39.78;22.10;;;19.10;53.90;;;;;;7335148;19;112614;-86
2022/03/24 11:49:26;;;;;;;34.03;19.88;;;19.20;54.90;;;;;;7341787;19;110576;-85
2022/03/24 11:51:56;;;;;;;34.78;18.77;;;19.40;56.00;;;;;;7340500;19;111073;-87
2022/03/24 11:54:38;;;;;;;29.45;15.77;;;19.60;56.10;;;;;;7340802;19;111544;-87
2022/03/24 11:57:31;;;;;;;31.73;14.45;;;19.80;54.50;;;;;;7337367;19;110031;-85
2022/03/24 12:00:13;;;;;;;33.15;16.02;;;19.80;52.80;;;;;;7340455;19;112408;-84
2022/03/24 12:02:45;;;;;;;38.83;15.55;;;19.70;53.30;;;;;;7338518;19;110739;-83
2022/03/24 12:05:14;;;;;;;27.95;15.70;;;19.80;52.50;;;;;;7339538;19;111967;-84
2022/03/24 12:07:41;;;;;;;29.75;15.27;;;19.90;51.40;;;;;;7335160;19;114051;-83
2022/03/24 12:10:14;;;;;;;26.90;16.35;;;20.00;51.00;;;;;;7339137;19;112714;-84
2022/03/24 12:13:19;;;;;;;37.72;16.83;;;20.10;51.60;;;;;;7335770;19;113204;-84
2022/03/24 12:16:21;;;;;;;31.63;15.82;;;20.40;51.70;;;;;;7339990;19;111108;-85
2022/03/24 12:18:49;;;;;;;26.83;14.60;;;20.50;50.30;;;;;;7340794;19;113048;-86
2022/03/24 12:21:24;;;;;;;26.48;15.43;;;20.40;48.60;;;;;;7337028;19;113727;-85
2022/03/24 12:24:17;;;;;;;29.02;15.23;;;20.40;51.10;;;;;;7341424;19;111640;-84
2022/03/24 12:26:59;;;;;;;27.30;15.05;;;20.50;52.70;;;;;;7344055;19;110397;-84
2022/03/24 12:29:27;;;;;;;25.60;14.85;;;20.70;52.30;;;;;;7337395;19;111251;-84
2022/03/24 12:31:55;;;;;;;25.75;14.52;;;20.80;50.70;;;;;;7338409;19;110410;-85
2022/03/24 12:34:43;;;;;;;31.23;14.27;;;20.70;49.60;;;;;;7339999;19;110697;-85